createdAt,value
2018-06-24T00:00:05.828Z,0
2018-06-24T00:00:31.965Z,0
2018-06-24T00:00:58.107Z,0
2018-06-24T00:01:24.248Z,0
2018-06-24T00:01:50.418Z,0
2018-06-24T00:02:16.556Z,0
2018-06-24T00:02:42.721Z,0
2018-06-24T00:03:08.849Z,0
2018-06-24T00:03:34.992Z,0
2018-06-24T00:04:01.136Z,0
2018-06-24T00:04:27.275Z,0
2018-06-24T00:04:53.410Z,0
2018-06-24T00:05:19.550Z,0
2018-06-24T00:05:45.691Z,0
2018-06-24T00:06:11.858Z,0
2018-06-24T00:06:37.993Z,0
2018-06-24T00:07:04.131Z,0
2018-06-24T00:07:30.279Z,0
2018-06-24T00:07:56.413Z,0
2018-06-24T00:08:22.550Z,0
2018-06-24T00:08:48.691Z,0
2018-06-24T00:09:14.838Z,0
2018-06-24T00:09:40.972Z,0
2018-06-24T00:10:07.170Z,0
2018-06-24T00:10:33.325Z,0
2018-06-24T00:10:59.468Z,0
2018-06-24T00:11:25.633Z,0
2018-06-24T00:11:51.772Z,0
2018-06-24T00:12:17.917Z,0
2018-06-24T00:12:44.052Z,0
2018-06-24T00:13:10.213Z,0
2018-06-24T00:13:36.354Z,0
2018-06-24T00:14:02.491Z,0
2018-06-24T00:14:28.621Z,0
2018-06-24T00:14:54.763Z,0
2018-06-24T00:15:20.927Z,0
2018-06-24T00:15:47.090Z,0
2018-06-24T00:16:13.221Z,0
2018-06-24T00:16:39.363Z,0
2018-06-24T00:17:05.498Z,0
2018-06-24T00:17:31.637Z,0
2018-06-24T00:17:57.772Z,0
2018-06-24T00:18:23.915Z,0
2018-06-24T00:18:50.078Z,0
2018-06-24T00:19:16.218Z,0
2018-06-24T00:19:42.358Z,0
2018-06-24T00:20:08.499Z,0
2018-06-24T00:20:34.640Z,0
2018-06-24T00:21:00.806Z,0
2018-06-24T00:21:26.996Z,0
2018-06-24T00:21:53.124Z,0
2018-06-24T00:22:19.272Z,0
2018-06-24T00:22:45.453Z,0
2018-06-24T00:23:11.604Z,0
2018-06-24T00:23:37.743Z,0
2018-06-24T00:24:03.935Z,0
2018-06-24T00:24:30.078Z,0
2018-06-24T00:24:56.232Z,0
2018-06-24T00:25:22.372Z,0
2018-06-24T00:25:48.513Z,0
2018-06-24T00:26:14.654Z,0
2018-06-24T00:26:40.793Z,0
2018-06-24T00:27:06.936Z,0
2018-06-24T00:27:33.076Z,0
2018-06-24T00:27:59.219Z,0
2018-06-24T00:28:25.360Z,0
2018-06-24T00:28:51.522Z,0
2018-06-24T00:29:17.662Z,0
2018-06-24T00:29:43.799Z,0
2018-06-24T00:30:09.963Z,0
2018-06-24T00:30:36.097Z,0
2018-06-24T00:31:02.259Z,0
2018-06-24T00:31:28.393Z,0
2018-06-24T00:31:54.531Z,0
2018-06-24T00:32:20.673Z,0
2018-06-24T00:32:46.812Z,0
2018-06-24T00:33:12.951Z,0
2018-06-24T00:33:39.086Z,0
2018-06-24T00:34:05.280Z,0
2018-06-24T00:34:31.424Z,0
2018-06-24T00:34:57.564Z,0
2018-06-24T00:35:23.703Z,0
2018-06-24T00:35:49.870Z,0
2018-06-24T00:36:16.016Z,0
2018-06-24T00:36:42.224Z,0
2018-06-24T00:37:08.404Z,0
2018-06-24T00:37:34.516Z,0
2018-06-24T00:38:00.679Z,0
2018-06-24T00:38:26.816Z,0
2018-06-24T00:38:52.974Z,0
2018-06-24T00:39:19.114Z,0
2018-06-24T00:39:45.259Z,0
2018-06-24T00:40:11.417Z,0
2018-06-24T00:40:37.554Z,0
2018-06-24T00:41:03.724Z,0
2018-06-24T00:41:29.910Z,0
2018-06-24T00:41:56.044Z,0
2018-06-24T00:42:22.185Z,0
2018-06-24T00:42:48.322Z,0
2018-06-24T00:43:14.462Z,0
2018-06-24T00:43:40.596Z,0
2018-06-24T00:44:09.770Z,0
2018-06-24T00:44:36.070Z,0
2018-06-24T00:45:02.221Z,0
2018-06-24T00:45:28.384Z,0
2018-06-24T00:45:54.523Z,0
2018-06-24T00:46:20.690Z,0
2018-06-24T00:46:46.828Z,0
2018-06-24T00:47:12.998Z,0
2018-06-24T00:47:39.137Z,0
2018-06-24T00:48:05.277Z,0
2018-06-24T00:48:31.415Z,0
2018-06-24T00:48:57.564Z,0
2018-06-24T00:49:23.708Z,0
2018-06-24T00:49:49.844Z,0
2018-06-24T00:50:15.990Z,0
2018-06-24T00:50:42.130Z,0
2018-06-24T00:51:08.295Z,0
2018-06-24T00:51:34.436Z,0
2018-06-24T00:52:00.575Z,0
2018-06-24T00:52:26.715Z,0
2018-06-24T00:52:52.874Z,0
2018-06-24T00:53:19.014Z,0
2018-06-24T00:53:45.209Z,0
2018-06-24T00:54:11.335Z,0
2018-06-24T00:54:37.483Z,0
2018-06-24T00:55:03.638Z,0
2018-06-24T00:55:29.771Z,0
2018-06-24T00:55:55.934Z,0
2018-06-24T00:56:22.071Z,0
2018-06-24T00:56:48.214Z,0
2018-06-24T00:57:14.355Z,0
2018-06-24T00:57:40.489Z,0
2018-06-24T00:58:06.652Z,0
2018-06-24T00:58:32.785Z,0
2018-06-24T00:58:58.926Z,0
2018-06-24T00:59:25.083Z,0
2018-06-24T00:59:51.224Z,0
2018-06-24T01:00:17.366Z,0
2018-06-24T01:00:43.505Z,0
2018-06-24T01:01:09.642Z,0
2018-06-24T01:01:35.781Z,0
2018-06-24T01:02:01.946Z,0
2018-06-24T01:02:28.088Z,0
2018-06-24T01:02:54.246Z,0
2018-06-24T01:03:20.387Z,0
2018-06-24T01:03:46.536Z,0
2018-06-24T01:04:12.692Z,0
2018-06-24T01:04:38.829Z,0
2018-06-24T01:05:04.967Z,0
2018-06-24T01:05:31.126Z,0
2018-06-24T01:05:57.259Z,0
2018-06-24T01:06:23.428Z,0
2018-06-24T01:06:49.589Z,0
2018-06-24T01:07:15.726Z,0
2018-06-24T01:07:41.867Z,0
2018-06-24T01:08:08.003Z,0
2018-06-24T01:08:34.136Z,0
2018-06-24T01:09:00.304Z,0
2018-06-24T01:09:26.462Z,0
2018-06-24T01:09:52.607Z,0
2018-06-24T01:10:18.791Z,0
2018-06-24T01:10:44.950Z,0
2018-06-24T01:11:11.089Z,0
2018-06-24T01:11:37.226Z,0
2018-06-24T01:12:03.384Z,0
2018-06-24T01:12:29.527Z,0
2018-06-24T01:12:55.663Z,0
2018-06-24T01:13:21.834Z,0
2018-06-24T01:13:47.998Z,0
2018-06-24T01:14:14.150Z,0
2018-06-24T01:14:40.287Z,0
2018-06-24T01:15:06.425Z,0
2018-06-24T01:15:32.568Z,0
2018-06-24T01:15:58.699Z,0
2018-06-24T01:16:24.835Z,0
2018-06-24T01:16:50.978Z,0
2018-06-24T01:17:17.117Z,0
2018-06-24T01:17:43.275Z,0
2018-06-24T01:18:09.417Z,0
2018-06-24T01:18:35.556Z,0
2018-06-24T01:19:01.686Z,0
2018-06-24T01:19:27.827Z,0
2018-06-24T01:19:53.988Z,0
2018-06-24T01:20:20.126Z,0
2018-06-24T01:20:46.294Z,0
2018-06-24T01:21:12.454Z,0
2018-06-24T01:21:38.615Z,0
2018-06-24T01:22:04.754Z,0
2018-06-24T01:22:30.895Z,0
2018-06-24T01:22:57.031Z,0
2018-06-24T01:23:23.173Z,0
2018-06-24T01:23:49.310Z,0
2018-06-24T01:24:15.448Z,0
2018-06-24T01:24:41.589Z,0
2018-06-24T01:25:07.730Z,0
2018-06-24T01:25:33.869Z,0
2018-06-24T01:26:00.011Z,0
2018-06-24T01:26:26.194Z,0
2018-06-24T01:26:52.357Z,0
2018-06-24T01:27:18.498Z,0
2018-06-24T01:27:44.633Z,0
2018-06-24T01:28:10.779Z,0
2018-06-24T01:28:36.945Z,0
2018-06-24T01:29:03.083Z,0
2018-06-24T01:29:29.224Z,0
2018-06-24T01:29:55.362Z,0
2018-06-24T01:30:21.524Z,0
2018-06-24T01:30:47.689Z,0
2018-06-24T01:31:13.880Z,0
2018-06-24T01:31:40.025Z,0
2018-06-24T01:32:06.159Z,0
2018-06-24T01:32:32.301Z,0
2018-06-24T01:32:58.463Z,0
2018-06-24T01:33:24.603Z,0
2018-06-24T01:33:50.741Z,0
2018-06-24T01:34:16.887Z,0
2018-06-24T01:34:43.018Z,0
2018-06-24T01:35:09.158Z,0
2018-06-24T01:35:35.326Z,0
2018-06-24T01:36:01.461Z,0
2018-06-24T01:36:27.598Z,0
2018-06-24T01:36:53.737Z,0
2018-06-24T01:37:19.877Z,0
2018-06-24T01:37:46.015Z,0
2018-06-24T01:38:12.149Z,0
2018-06-24T01:38:38.316Z,0
2018-06-24T01:39:04.450Z,0
2018-06-24T01:39:30.589Z,0
2018-06-24T01:39:56.726Z,0
2018-06-24T01:40:22.868Z,0
2018-06-24T01:40:49.010Z,0
2018-06-24T01:41:15.145Z,0
2018-06-24T01:41:41.307Z,0
2018-06-24T01:42:07.448Z,0
2018-06-24T01:42:33.631Z,0
2018-06-24T01:42:59.814Z,0
2018-06-24T01:43:25.951Z,0
2018-06-24T01:43:52.089Z,0
2018-06-24T01:44:18.229Z,0
2018-06-24T01:44:44.367Z,0
2018-06-24T01:45:10.526Z,0
2018-06-24T01:45:36.667Z,0
2018-06-24T01:46:02.806Z,0
2018-06-24T01:46:28.951Z,0
2018-06-24T01:46:55.107Z,0
2018-06-24T01:47:21.247Z,0
2018-06-24T01:47:47.406Z,0
2018-06-24T01:48:13.553Z,0
2018-06-24T01:48:39.688Z,0
2018-06-24T01:49:05.829Z,0
2018-06-24T01:49:31.973Z,0
2018-06-24T01:49:58.139Z,0
2018-06-24T01:50:24.273Z,0
2018-06-24T01:50:50.413Z,0
2018-06-24T01:51:16.561Z,0
2018-06-24T01:51:42.714Z,0
2018-06-24T01:52:08.854Z,0
2018-06-24T01:52:34.991Z,0
2018-06-24T01:53:01.130Z,0
2018-06-24T01:53:27.269Z,0
2018-06-24T01:53:53.405Z,0
2018-06-24T01:54:19.540Z,0
2018-06-24T01:54:45.706Z,0
2018-06-24T01:55:11.840Z,0
2018-06-24T01:55:37.981Z,0
2018-06-24T01:56:04.146Z,0
2018-06-24T01:56:30.309Z,0
2018-06-24T01:56:56.440Z,0
2018-06-24T01:57:22.579Z,0
2018-06-24T01:57:48.747Z,0
2018-06-24T01:58:14.885Z,0
2018-06-24T01:58:41.032Z,0
2018-06-24T01:59:07.196Z,0
2018-06-24T01:59:33.353Z,0
2018-06-24T01:59:59.497Z,0
2018-06-24T02:00:25.637Z,0
2018-06-24T02:00:51.777Z,0
2018-06-24T02:01:17.918Z,0
2018-06-24T02:01:44.059Z,0
2018-06-24T02:02:10.195Z,0
2018-06-24T02:02:36.332Z,0
2018-06-24T02:03:02.473Z,0
2018-06-24T02:03:28.616Z,0
2018-06-24T02:03:54.759Z,0
2018-06-24T02:04:20.894Z,0
2018-06-24T02:04:47.037Z,0
2018-06-24T02:05:13.169Z,0
2018-06-24T02:05:39.311Z,0
2018-06-24T02:06:05.454Z,0
2018-06-24T02:06:31.593Z,0
2018-06-24T02:06:57.730Z,0
2018-06-24T02:07:23.871Z,0
2018-06-24T02:07:50.034Z,0
2018-06-24T02:08:16.172Z,0
2018-06-24T02:08:42.315Z,0
2018-06-24T02:09:08.470Z,0
2018-06-24T02:09:34.607Z,0
2018-06-24T02:10:00.751Z,0
2018-06-24T02:10:26.897Z,0
2018-06-24T02:10:53.030Z,0
2018-06-24T02:11:19.191Z,0
2018-06-24T02:11:45.334Z,0
2018-06-24T02:12:11.479Z,0
2018-06-24T02:12:37.636Z,0
2018-06-24T02:13:03.781Z,0
2018-06-24T02:13:29.914Z,0
2018-06-24T02:13:56.054Z,0
2018-06-24T02:14:22.203Z,0
2018-06-24T02:14:48.391Z,0
2018-06-24T02:15:14.530Z,0
2018-06-24T02:15:40.674Z,0
2018-06-24T02:16:06.803Z,0
2018-06-24T02:16:32.948Z,0
2018-06-24T02:16:59.134Z,0
2018-06-24T02:17:25.269Z,0
2018-06-24T02:17:51.408Z,0
2018-06-24T02:18:17.570Z,0
2018-06-24T02:18:43.706Z,0
2018-06-24T02:19:09.842Z,0
2018-06-24T02:19:35.978Z,0
2018-06-24T02:20:02.112Z,0
2018-06-24T02:20:28.284Z,0
2018-06-24T02:20:54.421Z,0
2018-06-24T02:21:20.561Z,0
2018-06-24T02:21:46.697Z,0
2018-06-24T02:22:12.866Z,0
2018-06-24T02:22:39.005Z,0
2018-06-24T02:23:05.142Z,0
2018-06-24T02:23:31.295Z,0
2018-06-24T02:23:57.436Z,0
2018-06-24T02:24:23.577Z,0
2018-06-24T02:24:49.734Z,0
2018-06-24T02:25:15.872Z,0
2018-06-24T02:25:42.042Z,0
2018-06-24T02:26:08.184Z,0
2018-06-24T02:26:34.325Z,0
2018-06-24T02:27:00.455Z,0
2018-06-24T02:27:26.601Z,0
2018-06-24T02:27:52.737Z,0
2018-06-24T02:28:18.883Z,0
2018-06-24T02:28:45.018Z,0
2018-06-24T02:29:11.169Z,0
2018-06-24T02:29:37.304Z,0
2018-06-24T02:30:03.444Z,0
2018-06-24T02:30:29.628Z,0
2018-06-24T02:30:55.768Z,0
2018-06-24T02:31:21.949Z,0
2018-06-24T02:31:48.104Z,0
2018-06-24T02:32:14.295Z,0
2018-06-24T02:32:40.452Z,0
2018-06-24T02:33:06.595Z,0
2018-06-24T02:33:32.746Z,0
2018-06-24T02:33:58.916Z,0
2018-06-24T02:34:25.077Z,0
2018-06-24T02:34:51.214Z,0
2018-06-24T02:35:17.424Z,0
2018-06-24T02:35:43.511Z,0
2018-06-24T02:36:09.715Z,0
2018-06-24T02:36:35.864Z,0
2018-06-24T02:37:01.999Z,0
2018-06-24T02:37:28.140Z,0
2018-06-24T02:37:54.280Z,0
2018-06-24T02:38:20.495Z,0
2018-06-24T02:38:46.656Z,0
2018-06-24T02:39:12.788Z,0
2018-06-24T02:39:38.933Z,0
2018-06-24T02:40:05.065Z,0
2018-06-24T02:40:31.206Z,0
2018-06-24T02:40:57.381Z,0
2018-06-24T02:41:23.560Z,0
2018-06-24T02:41:49.766Z,0
2018-06-24T02:42:15.898Z,0
2018-06-24T02:42:42.029Z,0
2018-06-24T02:43:08.175Z,0
2018-06-24T02:43:34.338Z,0
2018-06-24T02:44:00.503Z,0
2018-06-24T02:44:26.682Z,0
2018-06-24T02:44:52.850Z,0
2018-06-24T02:45:18.993Z,0
2018-06-24T02:45:45.152Z,0
2018-06-24T02:46:11.303Z,0
2018-06-24T02:46:37.464Z,0
2018-06-24T02:47:03.658Z,0
2018-06-24T02:47:29.816Z,0
2018-06-24T02:47:56.006Z,0
2018-06-24T02:48:22.162Z,0
2018-06-24T02:48:48.350Z,0
2018-06-24T02:49:14.512Z,0
2018-06-24T02:49:40.646Z,0
2018-06-24T02:50:06.787Z,0
2018-06-24T02:50:32.931Z,0
2018-06-24T02:50:59.097Z,0
2018-06-24T02:51:25.260Z,0
2018-06-24T02:51:51.413Z,0
2018-06-24T02:52:17.583Z,0
2018-06-24T02:52:43.717Z,0
2018-06-24T02:53:09.844Z,0
2018-06-24T02:53:36.028Z,0
2018-06-24T02:54:02.146Z,0
2018-06-24T02:54:28.301Z,0
2018-06-24T02:54:54.490Z,0
2018-06-24T02:55:20.650Z,0
2018-06-24T02:55:46.788Z,0
2018-06-24T02:56:12.926Z,0
2018-06-24T02:56:39.127Z,0
2018-06-24T02:57:05.280Z,0
2018-06-24T02:57:31.487Z,0
2018-06-24T02:57:57.631Z,0
2018-06-24T02:58:23.791Z,0
2018-06-24T02:58:49.973Z,0
2018-06-24T02:59:16.114Z,0
2018-06-24T02:59:42.250Z,0
2018-06-24T03:00:08.393Z,0
2018-06-24T03:00:34.550Z,0
2018-06-24T03:01:00.756Z,0
2018-06-24T03:01:26.892Z,0
2018-06-24T03:01:53.052Z,0
2018-06-24T03:02:19.219Z,0
2018-06-24T03:02:45.374Z,0
2018-06-24T03:03:11.538Z,0
2018-06-24T03:03:37.700Z,0
2018-06-24T03:04:03.899Z,0
2018-06-24T03:04:30.055Z,0
2018-06-24T03:04:56.212Z,0
2018-06-24T03:05:22.401Z,0
2018-06-24T03:05:48.540Z,0
2018-06-24T03:06:14.685Z,0
2018-06-24T03:06:40.855Z,0
2018-06-24T03:07:06.978Z,0
2018-06-24T03:07:33.117Z,0
2018-06-24T03:07:59.287Z,0
2018-06-24T03:08:25.421Z,0
2018-06-24T03:08:51.591Z,5
2018-06-24T03:09:17.757Z,5
2018-06-24T03:09:43.896Z,5
2018-06-24T03:10:10.082Z,5
2018-06-24T03:10:36.217Z,5
2018-06-24T03:11:02.383Z,5
2018-06-24T03:11:28.525Z,5
2018-06-24T03:11:54.738Z,5
2018-06-24T03:12:20.875Z,5
2018-06-24T03:12:47.047Z,5
2018-06-24T03:13:13.182Z,5
2018-06-24T03:13:39.389Z,5
2018-06-24T03:14:05.524Z,5
2018-06-24T03:14:31.688Z,5
2018-06-24T03:14:57.819Z,5
2018-06-24T03:15:23.965Z,5
2018-06-24T03:15:50.094Z,5
2018-06-24T03:16:16.233Z,5
2018-06-24T03:16:42.419Z,5
2018-06-24T03:17:08.585Z,5
2018-06-24T03:17:34.715Z,5
2018-06-24T03:18:00.886Z,5
2018-06-24T03:18:27.049Z,5
2018-06-24T03:18:53.201Z,5
2018-06-24T03:19:19.335Z,5
2018-06-24T03:19:45.498Z,5
2018-06-24T03:20:11.641Z,5
2018-06-24T03:20:37.799Z,5
2018-06-24T03:21:03.984Z,5
2018-06-24T03:21:30.124Z,5
2018-06-24T03:21:56.261Z,5
2018-06-24T03:22:22.409Z,5
2018-06-24T03:22:48.539Z,5
2018-06-24T03:23:14.676Z,5
2018-06-24T03:23:40.840Z,5
2018-06-24T03:24:06.999Z,5
2018-06-24T03:24:33.142Z,5
2018-06-24T03:24:59.276Z,5
2018-06-24T03:25:25.415Z,5
2018-06-24T03:25:51.581Z,5
2018-06-24T03:26:17.715Z,5
2018-06-24T03:26:43.853Z,5
2018-06-24T03:27:09.995Z,5
2018-06-24T03:27:36.132Z,10
2018-06-24T03:28:02.270Z,10
2018-06-24T03:28:28.410Z,10
2018-06-24T03:28:54.572Z,10
2018-06-24T03:29:20.708Z,10
2018-06-24T03:29:46.863Z,10
2018-06-24T03:30:13.007Z,10
2018-06-24T03:30:39.191Z,10
2018-06-24T03:31:05.357Z,10
2018-06-24T03:31:31.521Z,15
2018-06-24T03:31:57.661Z,15
2018-06-24T03:32:23.865Z,15
2018-06-24T03:32:50.037Z,15
2018-06-24T03:33:16.182Z,15
2018-06-24T03:33:42.323Z,15
2018-06-24T03:34:08.465Z,15
2018-06-24T03:34:34.603Z,15
2018-06-24T03:35:00.749Z,20
2018-06-24T03:35:26.914Z,20
2018-06-24T03:35:53.047Z,20
2018-06-24T03:36:19.194Z,20
2018-06-24T03:36:45.332Z,20
2018-06-24T03:37:11.471Z,20
2018-06-24T03:37:37.603Z,25
2018-06-24T03:38:03.743Z,25
2018-06-24T03:38:29.880Z,25
2018-06-24T03:38:56.020Z,25
2018-06-24T03:39:22.146Z,25
2018-06-24T03:39:48.286Z,25
2018-06-24T03:40:14.433Z,25
2018-06-24T03:40:40.612Z,25
2018-06-24T03:41:06.756Z,25
2018-06-24T03:41:32.910Z,25
2018-06-24T03:41:59.045Z,25
2018-06-24T03:42:25.183Z,25
2018-06-24T03:42:51.322Z,25
2018-06-24T03:43:17.490Z,30
2018-06-24T03:43:43.629Z,30
2018-06-24T03:44:09.770Z,30
2018-06-24T03:44:35.956Z,30
2018-06-24T03:45:02.049Z,30
2018-06-24T03:45:28.196Z,30
2018-06-24T03:45:54.360Z,35
2018-06-24T03:46:20.496Z,35
2018-06-24T03:46:46.636Z,35
2018-06-24T03:47:12.776Z,35
2018-06-24T03:47:38.912Z,35
2018-06-24T03:48:05.077Z,35
2018-06-24T03:48:31.223Z,35
2018-06-24T03:48:57.363Z,40
2018-06-24T03:49:23.569Z,40
2018-06-24T03:49:49.711Z,40
2018-06-24T03:50:15.844Z,40
2018-06-24T03:50:41.984Z,40
2018-06-24T03:51:08.154Z,40
2018-06-24T03:51:34.290Z,40
2018-06-24T03:52:00.462Z,40
2018-06-24T03:52:26.605Z,40
2018-06-24T03:52:52.741Z,40
2018-06-24T03:53:18.905Z,40
2018-06-24T03:53:45.042Z,40
2018-06-24T03:54:11.178Z,40
2018-06-24T03:54:37.333Z,40
2018-06-24T03:55:03.491Z,40
2018-06-24T03:55:29.631Z,40
2018-06-24T03:55:55.768Z,40
2018-06-24T03:56:21.905Z,45
2018-06-24T03:56:48.080Z,45
2018-06-24T03:57:14.220Z,45
2018-06-24T03:57:40.360Z,50
2018-06-24T03:58:06.560Z,50
2018-06-24T03:58:32.646Z,50
2018-06-24T03:58:58.785Z,55
2018-06-24T03:59:24.919Z,60
2018-06-24T03:59:51.068Z,65
2018-06-24T04:00:17.199Z,75
2018-06-24T04:00:43.339Z,75
2018-06-24T04:01:09.476Z,75
2018-06-24T04:01:35.617Z,80
2018-06-24T04:02:01.760Z,80
2018-06-24T04:02:27.914Z,85
2018-06-24T04:02:54.054Z,85
2018-06-24T04:03:20.194Z,85
2018-06-24T04:03:46.336Z,85
2018-06-24T04:04:12.472Z,85
2018-06-24T04:04:38.612Z,85
2018-06-24T04:05:04.768Z,85
2018-06-24T04:05:30.933Z,85
2018-06-24T04:05:57.091Z,85
2018-06-24T04:06:23.236Z,85
2018-06-24T04:06:49.395Z,85
2018-06-24T04:07:15.549Z,85
2018-06-24T04:07:41.671Z,85
2018-06-24T04:08:07.826Z,85
2018-06-24T04:08:33.966Z,85
2018-06-24T04:09:00.104Z,85
2018-06-24T04:09:26.248Z,85
2018-06-24T04:09:52.392Z,80
2018-06-24T04:10:18.529Z,80
2018-06-24T04:10:44.666Z,75
2018-06-24T04:11:10.838Z,70
2018-06-24T04:11:37.032Z,70
2018-06-24T04:12:03.195Z,70
2018-06-24T04:12:29.332Z,70
2018-06-24T04:12:55.475Z,65
2018-06-24T04:13:21.616Z,65
2018-06-24T04:13:47.760Z,65
2018-06-24T04:14:13.899Z,65
2018-06-24T04:14:40.035Z,65
2018-06-24T04:15:06.175Z,65
2018-06-24T04:15:32.318Z,65
2018-06-24T04:15:58.485Z,65
2018-06-24T04:16:24.624Z,65
2018-06-24T04:16:50.765Z,65
2018-06-24T04:17:16.902Z,65
2018-06-24T04:17:43.040Z,65
2018-06-24T04:18:09.200Z,65
2018-06-24T04:18:35.345Z,65
2018-06-24T04:19:01.488Z,65
2018-06-24T04:19:27.626Z,70
2018-06-24T04:19:53.766Z,65
2018-06-24T04:20:19.905Z,65
2018-06-24T04:20:46.043Z,65
2018-06-24T04:21:12.177Z,65
2018-06-24T04:21:38.323Z,65
2018-06-24T04:22:04.502Z,65
2018-06-24T04:22:30.647Z,65
2018-06-24T04:22:56.782Z,70
2018-06-24T04:23:22.927Z,70
2018-06-24T04:23:49.065Z,70
2018-06-24T04:24:15.222Z,70
2018-06-24T04:24:41.360Z,70
2018-06-24T04:25:07.520Z,70
2018-06-24T04:25:33.659Z,75
2018-06-24T04:25:59.872Z,75
2018-06-24T04:26:26.039Z,75
2018-06-24T04:26:52.177Z,75
2018-06-24T04:27:18.315Z,75
2018-06-24T04:27:44.451Z,75
2018-06-24T04:28:10.597Z,80
2018-06-24T04:28:36.729Z,80
2018-06-24T04:29:02.863Z,80
2018-06-24T04:29:29.010Z,80
2018-06-24T04:29:55.191Z,80
2018-06-24T04:30:21.336Z,80
2018-06-24T04:30:47.478Z,80
2018-06-24T04:31:13.615Z,80
2018-06-24T04:31:39.751Z,85
2018-06-24T04:32:05.897Z,85
2018-06-24T04:32:32.033Z,85
2018-06-24T04:32:58.172Z,85
2018-06-24T04:33:24.313Z,85
2018-06-24T04:33:50.477Z,90
2018-06-24T04:34:16.614Z,90
2018-06-24T04:34:42.757Z,90
2018-06-24T04:35:08.901Z,90
2018-06-24T04:35:35.037Z,90
2018-06-24T04:36:01.171Z,90
2018-06-24T04:36:27.339Z,90
2018-06-24T04:36:53.478Z,90
2018-06-24T04:37:19.615Z,90
2018-06-24T04:37:45.777Z,90
2018-06-24T04:38:11.918Z,90
2018-06-24T04:38:38.051Z,90
2018-06-24T04:39:04.187Z,95
2018-06-24T04:39:30.329Z,95
2018-06-24T04:39:56.471Z,100
2018-06-24T04:40:22.608Z,100
2018-06-24T04:40:48.771Z,100
2018-06-24T04:41:14.907Z,105
2018-06-24T04:41:41.048Z,105
2018-06-24T04:42:07.185Z,105
2018-06-24T04:42:33.318Z,105
2018-06-24T04:42:59.458Z,105
2018-06-24T04:43:25.626Z,110
2018-06-24T04:43:51.783Z,115
2018-06-24T04:44:17.949Z,115
2018-06-24T04:44:44.085Z,115
2018-06-24T04:45:10.244Z,115
2018-06-24T04:45:36.407Z,120
2018-06-24T04:46:02.547Z,120
2018-06-24T04:46:28.690Z,120
2018-06-24T04:46:54.851Z,125
2018-06-24T04:47:20.987Z,125
2018-06-24T04:47:47.125Z,130
2018-06-24T04:48:13.263Z,135
2018-06-24T04:48:39.405Z,140
2018-06-24T04:49:05.543Z,140
2018-06-24T04:49:31.688Z,145
2018-06-24T04:49:57.833Z,145
2018-06-24T04:50:23.970Z,150
2018-06-24T04:50:50.126Z,150
2018-06-24T04:51:16.275Z,150
2018-06-24T04:51:42.478Z,150
2018-06-24T04:52:08.592Z,155
2018-06-24T04:52:34.719Z,155
2018-06-24T04:53:00.859Z,155
2018-06-24T04:53:27.004Z,155
2018-06-24T04:53:53.180Z,155
2018-06-24T04:54:19.315Z,150
2018-06-24T04:54:45.487Z,145
2018-06-24T04:55:11.624Z,145
2018-06-24T04:55:37.795Z,140
2018-06-24T04:56:03.954Z,140
2018-06-24T04:56:30.093Z,140
2018-06-24T04:56:56.254Z,140
2018-06-24T04:57:22.396Z,140
2018-06-24T04:57:48.543Z,140
2018-06-24T04:58:14.711Z,140
2018-06-24T04:58:40.862Z,145
2018-06-24T04:59:07.048Z,145
2018-06-24T04:59:33.190Z,150
2018-06-24T04:59:59.348Z,150
2018-06-24T05:00:25.490Z,150
2018-06-24T05:00:51.628Z,155
2018-06-24T05:01:17.769Z,155
2018-06-24T05:01:43.906Z,155
2018-06-24T05:02:10.043Z,155
2018-06-24T05:02:36.188Z,155
2018-06-24T05:03:02.324Z,155
2018-06-24T05:03:28.474Z,155
2018-06-24T05:03:54.620Z,155
2018-06-24T05:04:20.761Z,155
2018-06-24T05:04:46.891Z,155
2018-06-24T05:05:13.043Z,155
2018-06-24T05:05:39.185Z,155
2018-06-24T05:06:05.324Z,155
2018-06-24T05:06:31.544Z,155
2018-06-24T05:06:57.643Z,155
2018-06-24T05:07:23.789Z,155
2018-06-24T05:07:49.930Z,155
2018-06-24T05:08:16.093Z,155
2018-06-24T05:08:42.229Z,155
2018-06-24T05:09:08.369Z,160
2018-06-24T05:09:34.535Z,160
2018-06-24T05:10:00.677Z,165
2018-06-24T05:10:26.836Z,170
2018-06-24T05:10:52.982Z,170
2018-06-24T05:11:19.135Z,170
2018-06-24T05:11:45.280Z,170
2018-06-24T05:12:11.414Z,175
2018-06-24T05:12:37.556Z,180
2018-06-24T05:13:03.702Z,185
2018-06-24T05:13:29.841Z,190
2018-06-24T05:13:55.981Z,205
2018-06-24T05:14:22.120Z,220
2018-06-24T05:14:48.258Z,240
2018-06-24T05:15:14.399Z,245
2018-06-24T05:15:40.534Z,225
2018-06-24T05:16:06.694Z,215
2018-06-24T05:16:32.866Z,205
2018-06-24T05:16:59.001Z,205
2018-06-24T05:17:25.154Z,200
2018-06-24T05:17:51.318Z,195
2018-06-24T05:18:17.458Z,185
2018-06-24T05:18:43.595Z,185
2018-06-24T05:19:09.721Z,180
2018-06-24T05:19:35.858Z,185
2018-06-24T05:20:02.005Z,190
2018-06-24T05:20:28.147Z,190
2018-06-24T05:20:54.283Z,195
2018-06-24T05:21:20.426Z,200
2018-06-24T05:21:46.562Z,200
2018-06-24T05:22:12.727Z,200
2018-06-24T05:22:38.861Z,200
2018-06-24T05:23:05.025Z,195
2018-06-24T05:23:31.172Z,195
2018-06-24T05:23:57.307Z,195
2018-06-24T05:24:23.443Z,190
2018-06-24T05:24:49.583Z,190
2018-06-24T05:25:15.746Z,190
2018-06-24T05:25:41.886Z,190
2018-06-24T05:26:08.050Z,190
2018-06-24T05:26:34.185Z,185
2018-06-24T05:27:00.347Z,180
2018-06-24T05:27:26.505Z,180
2018-06-24T05:27:52.624Z,175
2018-06-24T05:28:18.794Z,175
2018-06-24T05:28:44.980Z,175
2018-06-24T05:29:11.118Z,170
2018-06-24T05:29:37.263Z,175
2018-06-24T05:30:03.406Z,175
2018-06-24T05:30:29.540Z,175
2018-06-24T05:30:55.680Z,180
2018-06-24T05:31:21.817Z,185
2018-06-24T05:31:47.957Z,185
2018-06-24T05:32:14.089Z,185
2018-06-24T05:32:40.252Z,190
2018-06-24T05:33:06.393Z,190
2018-06-24T05:33:32.533Z,190
2018-06-24T05:33:58.729Z,195
2018-06-24T05:34:24.886Z,200
2018-06-24T05:34:51.020Z,200
2018-06-24T05:35:17.162Z,200
2018-06-24T05:35:43.324Z,200
2018-06-24T05:36:09.460Z,205
2018-06-24T05:36:35.601Z,205
2018-06-24T05:37:01.736Z,205
2018-06-24T05:37:27.934Z,205
2018-06-24T05:37:54.120Z,205
2018-06-24T05:38:20.219Z,205
2018-06-24T05:38:46.382Z,210
2018-06-24T05:39:12.523Z,210
2018-06-24T05:39:38.664Z,215
2018-06-24T05:40:04.799Z,220
2018-06-24T05:40:30.936Z,220
2018-06-24T05:40:57.100Z,225
2018-06-24T05:41:23.244Z,230
2018-06-24T05:41:49.373Z,235
2018-06-24T05:42:15.502Z,240
2018-06-24T05:42:41.641Z,245
2018-06-24T05:43:07.899Z,250
2018-06-24T05:43:33.955Z,250
2018-06-24T05:44:00.097Z,255
2018-06-24T05:44:26.232Z,260
2018-06-24T05:44:52.378Z,260
2018-06-24T05:45:18.515Z,260
2018-06-24T05:45:44.682Z,255
2018-06-24T05:46:10.820Z,250
2018-06-24T05:46:36.961Z,250
2018-06-24T05:47:03.100Z,255
2018-06-24T05:47:29.230Z,260
2018-06-24T05:47:55.373Z,265
2018-06-24T05:48:21.561Z,270
2018-06-24T05:48:47.738Z,270
2018-06-24T05:49:13.863Z,265
2018-06-24T05:49:40.022Z,260
2018-06-24T05:50:06.169Z,260
2018-06-24T05:50:32.346Z,260
2018-06-24T05:50:58.492Z,255
2018-06-24T05:51:24.632Z,250
2018-06-24T05:51:50.765Z,245
2018-06-24T05:52:16.904Z,240
2018-06-24T05:52:43.048Z,240
2018-06-24T05:53:09.206Z,240
2018-06-24T05:53:35.354Z,240
2018-06-24T05:54:01.489Z,245
2018-06-24T05:54:27.647Z,240
2018-06-24T05:54:53.791Z,245
2018-06-24T05:55:19.934Z,245
2018-06-24T05:55:46.122Z,245
2018-06-24T05:56:12.252Z,245
2018-06-24T05:56:38.394Z,245
2018-06-24T05:57:04.534Z,245
2018-06-24T05:57:30.673Z,245
2018-06-24T05:57:56.823Z,245
2018-06-24T05:58:22.953Z,245
2018-06-24T05:58:49.097Z,245
2018-06-24T05:59:15.237Z,250
2018-06-24T05:59:41.380Z,250
2018-06-24T06:00:07.544Z,250
2018-06-24T06:00:33.717Z,250
2018-06-24T06:00:59.850Z,250
2018-06-24T06:01:25.984Z,250
2018-06-24T06:01:52.148Z,250
2018-06-24T06:02:18.287Z,250
2018-06-24T06:02:44.427Z,245
2018-06-24T06:03:10.609Z,245
2018-06-24T06:03:36.747Z,245
2018-06-24T06:04:02.884Z,240
2018-06-24T06:04:29.023Z,240
2018-06-24T06:04:55.163Z,235
2018-06-24T06:05:21.301Z,235
2018-06-24T06:05:47.443Z,235
2018-06-24T06:06:13.610Z,230
2018-06-24T06:06:39.801Z,230
2018-06-24T06:07:05.936Z,230
2018-06-24T06:07:32.079Z,235
2018-06-24T06:07:58.217Z,230
2018-06-24T06:08:24.365Z,230
2018-06-24T06:08:50.507Z,230
2018-06-24T06:09:16.665Z,235
2018-06-24T06:09:42.812Z,240
2018-06-24T06:10:09.008Z,245
2018-06-24T06:10:35.112Z,250
2018-06-24T06:11:01.256Z,260
2018-06-24T06:11:27.412Z,260
2018-06-24T06:11:53.539Z,270
2018-06-24T06:12:19.675Z,280
2018-06-24T06:12:45.837Z,285
2018-06-24T06:13:12.004Z,290
2018-06-24T06:13:38.149Z,295
2018-06-24T06:14:04.290Z,295
2018-06-24T06:14:30.427Z,300
2018-06-24T06:14:56.578Z,310
2018-06-24T06:15:22.723Z,315
2018-06-24T06:15:48.863Z,315
2018-06-24T06:16:15.125Z,315
2018-06-24T06:16:41.144Z,315